createdAt,value
2019-04-23T00:00:20.424Z,33.75
2019-04-23T00:01:29.094Z,33.75
2019-04-23T00:02:31.626Z,33.75
2019-04-23T00:03:38.890Z,33.34
2019-04-23T00:04:46.905Z,33.66
2019-04-23T00:05:57.938Z,33.56
2019-04-23T00:07:12.871Z,33.97
2019-04-23T00:08:11.409Z,33.66
2019-04-23T00:09:22.388Z,33.76
2019-04-23T00:10:26.078Z,33.87
2019-04-23T00:12:44.819Z,33.87
2019-04-23T00:13:45.534Z,33.97
2019-04-23T00:14:54.791Z,34.48
2019-04-23T00:16:00.499Z,34.27
2019-04-23T00:16:57.840Z,33.27
2019-04-23T00:18:10.176Z,33.78
2019-04-23T00:19:11.657Z,33.98
2019-04-23T00:20:20.477Z,33.98
2019-04-23T00:21:31.898Z,34.17
2019-04-23T00:22:39.804Z,33.68
2019-04-23T00:23:44.677Z,33.98
2019-04-23T00:25:20.576Z,34.29
2019-04-23T00:25:52.595Z,34.29
2019-04-23T00:27:06.591Z,34.29
2019-04-23T00:28:16.181Z,34.39
2019-04-23T00:29:18.961Z,34.29
2019-04-23T00:30:18.815Z,33.68
2019-04-23T00:31:46.413Z,33.88
2019-04-23T00:32:36.306Z,33.90
2019-04-23T00:33:36.152Z,34.09
2019-04-23T00:34:49.624Z,34.10
2019-04-23T00:35:49.864Z,34.31
2019-04-23T00:37:01.664Z,34.51
2019-04-23T00:38:10.490Z,34.20
2019-04-23T00:39:08.228Z,34.41
2019-04-23T00:40:23.423Z,34.31
2019-04-23T00:41:24.971Z,35.12
2019-04-23T00:42:36.606Z,34.51
2019-04-23T00:43:43.257Z,34.51
2019-04-23T00:44:47.888Z,34.71
2019-04-23T00:45:53.301Z,35.12
2019-04-23T00:46:54.696Z,34.81
2019-04-23T00:48:02.015Z,33.91
2019-04-23T00:49:12.127Z,34.53
2019-04-23T00:51:22.341Z,35.12
2019-04-23T00:52:33.524Z,35.12
2019-04-23T00:53:34.212Z,35.12
2019-04-23T00:55:47.715Z,34.92
2019-04-23T00:58:10.408Z,34.93
2019-04-23T00:59:05.598Z,34.71
2019-04-23T01:01:31.931Z,34.73
2019-04-23T01:02:33.051Z,35.24
2019-04-23T01:03:33.802Z,34.73
2019-04-23T01:05:50.271Z,35.97
2019-04-23T01:06:58.305Z,35.54
2019-04-23T01:08:05.101Z,35.15
2019-04-23T01:09:22.225Z,35.56
2019-04-23T01:10:16.977Z,35.36
2019-04-23T01:11:20.027Z,35.05
2019-04-23T01:12:31.638Z,35.15
2019-04-23T01:13:39.378Z,35.46
2019-04-23T01:14:41.043Z,35.46
2019-04-23T01:15:46.705Z,35.46
2019-04-23T01:16:49.513Z,34.84
2019-04-23T01:18:02.160Z,35.68
2019-04-23T01:19:07.231Z,35.66
2019-04-23T01:20:08.225Z,35.66
2019-04-23T01:20:58.562Z,34.75
2019-04-23T01:22:00.144Z,35.46
2019-04-23T01:23:01.192Z,35.36
2019-04-23T01:24:06.232Z,35.86
2019-04-23T01:25:21.257Z,35.78
2019-04-23T01:26:39.952Z,35.99
2019-04-23T01:27:51.471Z,35.56
2019-04-23T01:28:55.930Z,35.56
2019-04-23T01:30:08.451Z,36.08
2019-04-23T01:31:08.887Z,35.99
2019-04-23T01:32:17.552Z,35.78
2019-04-23T01:33:29.180Z,36.40
2019-04-23T01:34:36.604Z,35.66
2019-04-23T01:35:43.065Z,36.29
2019-04-23T01:36:35.668Z,35.99
2019-04-23T01:37:58.108Z,35.78
2019-04-23T01:39:00.417Z,35.88
2019-04-23T01:40:07.694Z,35.99
2019-04-23T01:41:09.723Z,35.88
2019-04-23T01:42:22.425Z,36.00
2019-04-23T01:43:23.571Z,36.21
2019-04-23T01:44:31.267Z,36.61
2019-04-23T01:46:45.868Z,36.40
2019-04-23T01:47:51.842Z,36.70
2019-04-23T01:49:02.137Z,36.41
2019-04-23T01:50:09.958Z,36.51
2019-04-23T01:51:09.588Z,36.71
2019-04-23T01:52:24.882Z,37.12
2019-04-23T01:53:31.814Z,36.61
2019-04-23T01:54:30.493Z,36.61
2019-04-23T01:55:43.750Z,36.61
2019-04-23T01:56:40.001Z,36.61
2019-04-23T01:59:00.274Z,36.71
2019-04-23T02:00:11.652Z,36.71
2019-04-23T02:01:11.582Z,36.61
2019-04-23T02:02:19.350Z,36.61
2019-04-23T02:03:21.440Z,36.41
2019-04-23T02:04:32.093Z,36.71
2019-04-23T02:06:44.906Z,36.94
2019-04-23T02:09:00.538Z,37.02
2019-04-23T02:10:11.626Z,37.53
2019-04-23T02:11:10.528Z,37.53
2019-04-23T02:12:21.602Z,37.55
2019-04-23T02:13:28.604Z,37.23
2019-04-23T02:14:28.086Z,38.26
2019-04-23T02:15:38.111Z,38.26
2019-04-23T02:16:55.117Z,38.57
2019-04-23T02:17:53.724Z,38.85
2019-04-23T02:19:04.486Z,38.16
2019-04-23T02:20:09.191Z,38.57
2019-04-23T02:21:05.624Z,38.57
2019-04-23T02:22:21.886Z,38.16
2019-04-23T02:24:39.742Z,38.06
2019-04-23T02:27:58.231Z,38.87
2019-04-23T02:30:15.129Z,38.57
2019-04-23T02:32:37.755Z,38.37
2019-04-23T02:34:40.618Z,38.67
2019-04-23T02:35:52.387Z,38.69
2019-04-23T02:41:31.735Z,38.39
2019-04-23T02:42:40.922Z,38.79
2019-04-23T02:43:22.001Z,38.59
2019-04-23T02:45:50.349Z,38.39
2019-04-23T02:46:51.707Z,38.39
2019-04-23T02:48:03.391Z,38.59
2019-04-23T02:50:20.061Z,38.71
2019-04-23T02:51:10.955Z,38.50
2019-04-23T02:52:34.387Z,38.50
2019-04-23T02:55:43.053Z,39.53
2019-04-23T02:57:54.293Z,39.62
2019-04-23T02:59:08.095Z,39.73
2019-04-23T03:01:21.893Z,39.22
2019-04-23T03:04:37.194Z,39.53
2019-04-23T03:07:54.139Z,39.53
2019-04-23T03:10:03.226Z,39.94
2019-04-23T03:11:27.577Z,39.12
2019-04-23T03:18:04.854Z,39.83
2019-04-23T03:19:08.307Z,40.03
2019-04-23T03:20:07.929Z,39.62
2019-04-23T03:25:40.078Z,39.83
2019-04-23T03:27:11.020Z,39.75
2019-04-23T03:27:40.909Z,39.42
2019-04-23T03:30:08.183Z,39.73
2019-04-23T03:32:48.224Z,39.53
2019-04-23T03:35:19.459Z,40.26
2019-04-23T03:36:18.407Z,40.55
2019-04-23T03:37:09.330Z,40.14
2019-04-23T03:40:03.809Z,40.16
2019-04-23T03:41:17.247Z,40.36
2019-04-23T03:43:25.455Z,40.36
2019-04-23T03:44:30.010Z,40.87
2019-04-23T03:47:48.527Z,41.06
2019-04-23T03:48:53.220Z,41.16
2019-04-23T03:50:19.733Z,41.26
2019-04-23T03:51:11.640Z,41.36
2019-04-23T03:53:29.893Z,41.77
2019-04-23T03:54:31.982Z,41.67
2019-04-23T03:55:37.119Z,41.67
2019-04-23T03:56:57.140Z,41.88
2019-04-23T03:57:37.975Z,40.77
2019-04-23T04:00:03.743Z,41.56
2019-04-23T04:01:07.365Z,41.79
2019-04-23T04:02:19.678Z,42.30
2019-04-23T04:04:31.216Z,42.10
2019-04-23T04:05:45.447Z,41.49
2019-04-23T04:08:56.027Z,42.20
2019-04-23T04:11:14.641Z,41.89
2019-04-23T04:12:16.614Z,42.50
2019-04-23T04:13:20.066Z,41.79
2019-04-23T04:14:33.872Z,42.41
2019-04-23T04:15:46.656Z,42.50
2019-04-23T04:16:34.212Z,42.20
2019-04-23T04:17:35.948Z,42.91
2019-04-23T04:21:09.499Z,43.43
2019-04-23T04:22:11.420Z,43.32
2019-04-23T04:23:24.237Z,43.63
2019-04-23T04:25:33.766Z,43.02
2019-04-23T04:27:45.743Z,43.63
2019-04-23T04:29:00.031Z,43.73
2019-04-23T04:29:51.874Z,43.63
2019-04-23T04:30:53.891Z,44.14
2019-04-23T04:32:22.030Z,43.32
2019-04-23T04:33:33.964Z,43.84
2019-04-23T04:35:42.189Z,43.32
2019-04-23T04:37:57.349Z,43.84
2019-04-23T04:41:03.012Z,43.91
2019-04-23T04:43:22.408Z,43.94
2019-04-23T04:46:39.803Z,44.24
2019-04-23T04:48:49.219Z,44.32
2019-04-23T04:51:14.939Z,44.22
2019-04-23T04:52:21.921Z,43.61
2019-04-23T04:53:23.286Z,44.02
2019-04-23T04:54:18.903Z,43.82
2019-04-23T04:55:28.383Z,43.82
2019-04-23T04:57:39.983Z,43.71
2019-04-23T04:58:56.450Z,43.71
2019-04-23T05:00:01.704Z,44.02
2019-04-23T05:02:25.742Z,43.79
2019-04-23T05:04:30.774Z,43.79
2019-04-23T05:06:39.140Z,44.00
2019-04-23T05:08:51.154Z,44.81
2019-04-23T05:11:02.104Z,44.41
2019-04-23T05:13:33.897Z,45.00
2019-04-23T05:14:13.039Z,44.71
2019-04-23T05:15:18.791Z,44.59
2019-04-23T05:16:27.807Z,45.31
2019-04-23T05:17:42.541Z,44.90
2019-04-23T05:18:47.424Z,44.79
2019-04-23T05:20:58.199Z,44.69
2019-04-23T05:23:16.547Z,44.79
2019-04-23T05:24:08.862Z,44.49
2019-04-23T05:25:12.323Z,44.49
2019-04-23T05:27:37.276Z,45.81
2019-04-23T05:28:44.552Z,45.59
2019-04-23T05:29:46.598Z,45.59
2019-04-23T05:30:51.550Z,45.59
2019-04-23T05:31:52.954Z,45.39
2019-04-23T05:33:11.884Z,45.59
2019-04-23T05:34:11.903Z,45.79
2019-04-23T05:36:37.431Z,45.89
2019-04-23T05:37:56.855Z,45.77
2019-04-23T05:38:50.435Z,45.57
2019-04-23T05:40:22.389Z,45.47
2019-04-23T05:41:03.737Z,45.67
2019-04-23T05:41:58.493Z,46.69
2019-04-23T05:43:12.400Z,46.69
2019-04-23T05:44:21.651Z,46.28
2019-04-23T05:45:21.723Z,46.26
2019-04-23T05:46:33.161Z,46.47
2019-04-23T05:47:35.671Z,46.26
2019-04-23T05:48:49.269Z,46.87
2019-04-23T05:49:51.955Z,46.36
2019-04-23T05:51:58.934Z,46.44
2019-04-23T05:53:11.496Z,46.75
2019-04-23T05:54:22.064Z,46.24
2019-04-23T05:55:18.701Z,46.85
2019-04-23T05:56:27.830Z,47.46
2019-04-23T05:57:36.260Z,47.26
2019-04-23T05:58:46.989Z,47.74
2019-04-23T05:59:48.474Z,47.34
2019-04-23T06:01:05.785Z,47.34
2019-04-23T06:03:11.985Z,47.64
2019-04-23T06:04:17.567Z,47.72
2019-04-23T06:05:30.951Z,47.52
2019-04-23T06:06:37.931Z,46.40
2019-04-23T06:07:35.777Z,46.60
2019-04-23T06:08:47.245Z,46.70
2019-04-23T06:09:56.326Z,47.42
2019-04-23T06:11:10.176Z,46.30
2019-04-23T06:11:59.767Z,46.81
2019-04-23T06:13:12.359Z,46.78
2019-04-23T06:14:35.279Z,46.68
2019-04-23T06:15:25.333Z,46.48
2019-04-23T06:17:29.672Z,46.17
2019-04-23T06:18:44.737Z,46.58
2019-04-23T06:19:52.584Z,46.25
2019-04-23T06:20:59.045Z,46.56
2019-04-23T06:22:11.191Z,46.36
2019-04-23T06:23:19.061Z,46.05
2019-04-23T06:24:23.046Z,46.36
2019-04-23T06:26:40.110Z,46.33
2019-04-23T06:27:32.040Z,46.36
2019-04-23T06:28:40.352Z,45.83
2019-04-23T06:29:43.145Z,45.32
2019-04-23T06:30:54.384Z,45.32
2019-04-23T06:32:14.915Z,45.42
2019-04-23T06:33:05.846Z,45.90
2019-04-23T06:34:20.214Z,45.60
2019-04-23T06:35:16.661Z,45.80
2019-04-23T06:36:30.732Z,46.31
2019-04-23T06:38:00.015Z,46.11
2019-04-23T06:38:49.643Z,45.80
2019-04-23T06:40:59.570Z,45.58
2019-04-23T06:43:05.387Z,45.28
2019-04-23T06:44:32.181Z,45.28
2019-04-23T06:45:15.885Z,44.95
2019-04-23T06:46:29.097Z,45.25
2019-04-23T06:47:24.844Z,45.25
2019-04-23T06:48:33.830Z,45.86
2019-04-23T06:49:49.484Z,44.73
2019-04-23T06:52:14.727Z,45.23
2019-04-23T06:53:02.029Z,45.54
2019-04-23T06:54:15.127Z,44.82
2019-04-23T06:55:18.430Z,45.11
2019-04-23T06:56:26.363Z,45.01
2019-04-23T06:57:41.236Z,44.38
2019-04-23T06:59:45.925Z,44.58
2019-04-23T07:00:48.018Z,44.66
2019-04-23T07:02:05.185Z,44.66
2019-04-23T07:03:00.908Z,44.15
2019-04-23T07:04:15.054Z,44.13
2019-04-23T07:05:15.828Z,44.13
2019-04-23T07:06:27.003Z,43.71
2019-04-23T07:08:42.989Z,42.98
2019-04-23T07:09:35.483Z,43.49
2019-04-23T07:10:49.461Z,42.88
2019-04-23T07:16:31.330Z,41.83
2019-04-23T07:17:35.042Z,42.03
2019-04-23T07:18:41.572Z,41.91
2019-04-23T07:19:50.149Z,41.10
2019-04-23T07:20:58.500Z,41.41
2019-04-23T07:22:08.225Z,41.49
2019-04-23T07:23:17.105Z,40.58
2019-04-23T07:27:31.762Z,40.03
2019-04-23T07:28:50.032Z,39.81
2019-04-23T07:31:05.503Z,40.01
2019-04-23T07:31:59.077Z,40.40
2019-04-23T07:33:11.929Z,39.29
2019-04-23T07:35:16.079Z,39.17
2019-04-23T07:36:29.534Z,38.77
2019-04-23T07:37:32.552Z,38.47
2019-04-23T07:38:47.436Z,38.55
2019-04-23T07:39:59.048Z,39.25
2019-04-23T07:40:58.747Z,38.75
2019-04-23T07:42:13.774Z,38.25
2019-04-23T07:43:09.086Z,38.25
2019-04-23T07:46:37.900Z,37.81
2019-04-23T07:47:36.379Z,37.71
2019-04-23T07:48:27.618Z,38.01
2019-04-23T07:49:52.247Z,37.91
2019-04-23T07:50:48.020Z,38.09
2019-04-23T07:52:03.497Z,38.09
2019-04-23T07:54:19.363Z,38.09
2019-04-23T07:55:25.499Z,37.67
2019-04-23T07:56:25.565Z,37.05
2019-04-23T07:57:30.547Z,37.26
2019-04-23T07:58:44.850Z,37.15
2019-04-23T07:59:50.243Z,36.65
2019-04-23T08:01:57.498Z,36.73
2019-04-23T08:03:13.550Z,36.41
2019-04-23T08:04:14.359Z,36.11
2019-04-23T08:05:22.518Z,36.02
2019-04-23T08:06:17.801Z,36.00
2019-04-23T08:07:29.723Z,36.00
2019-04-23T08:08:30.198Z,35.80
2019-04-23T08:10:02.348Z,36.40
2019-04-23T08:11:01.578Z,35.68
2019-04-23T08:12:04.802Z,35.18
2019-04-23T08:12:59.501Z,35.38
2019-04-23T08:14:03.572Z,35.28
2019-04-23T08:15:14.616Z,35.18
2019-04-23T08:16:34.309Z,35.18
2019-04-23T08:17:22.429Z,35.26
2019-04-23T08:18:41.462Z,35.46
2019-04-23T08:19:49.063Z,35.06
2019-04-23T08:21:58.249Z,34.84
2019-04-23T08:23:01.911Z,34.55
2019-04-23T08:25:14.373Z,34.66
2019-04-23T08:26:28.060Z,33.86
2019-04-23T08:27:25.019Z,35.06
2019-04-23T08:28:41.971Z,33.96
2019-04-23T08:29:45.884Z,34.66
2019-04-23T08:30:45.385Z,33.94
2019-04-23T08:31:52.759Z,33.84
2019-04-23T08:32:58.827Z,33.94
2019-04-23T08:34:23.945Z,34.83
2019-04-23T08:36:23.854Z,34.63
2019-04-23T08:37:27.002Z,34.33
2019-04-23T08:38:29.503Z,34.41
2019-04-23T08:39:38.629Z,34.53
2019-04-23T08:40:49.950Z,34.51
2019-04-23T08:42:09.761Z,34.11
2019-04-23T08:42:58.176Z,34.51
2019-04-23T08:44:09.229Z,34.50
2019-04-23T08:46:18.468Z,33.29
2019-04-23T08:47:31.875Z,33.50
2019-04-23T08:48:30.803Z,33.68
2019-04-23T08:50:38.398Z,33.20
2019-04-23T08:51:53.338Z,33.59
2019-04-23T08:53:00.170Z,33.38
2019-04-23T08:54:11.769Z,33.39
2019-04-23T08:55:28.691Z,33.68
2019-04-23T08:56:11.997Z,32.28
2019-04-23T08:57:31.890Z,33.18
2019-04-23T08:58:34.254Z,33.20
2019-04-23T08:59:38.766Z,32.58
2019-04-23T09:00:47.682Z,32.50
2019-04-23T09:02:10.447Z,33.28
2019-04-23T09:02:58.618Z,32.88
2019-04-23T09:04:00.793Z,33.18
2019-04-23T09:05:19.284Z,33.36
2019-04-23T09:06:15.960Z,32.56
2019-04-23T09:11:58.094Z,32.45
2019-04-23T09:13:09.089Z,32.63
2019-04-23T09:13:57.413Z,32.23
2019-04-23T09:15:09.984Z,31.93
2019-04-23T09:16:18.009Z,31.63
2019-04-23T09:18:26.226Z,31.54
2019-04-23T09:19:44.204Z,31.75
2019-04-23T09:21:49.707Z,31.95
2019-04-23T09:22:51.835Z,31.35
2019-04-23T09:23:56.191Z,31.63
2019-04-23T09:25:14.690Z,31.73
2019-04-23T09:26:06.191Z,31.72
2019-04-23T09:27:23.316Z,31.54
2019-04-23T09:28:34.871Z,31.72
2019-04-23T09:29:42.393Z,31.62
2019-04-23T09:30:38.785Z,31.70
2019-04-23T09:32:11.207Z,31.40
2019-04-23T09:32:51.606Z,31.21
2019-04-23T09:34:03.912Z,31.90
2019-04-23T09:35:14.430Z,31.60
2019-04-23T09:36:18.153Z,31.40
2019-04-23T09:37:19.486Z,31.89
2019-04-23T09:38:37.699Z,31.69
2019-04-23T09:40:50.410Z,31.09
2019-04-23T09:41:39.939Z,31.29
2019-04-23T09:42:54.370Z,31.49
2019-04-23T09:43:53.929Z,30.98
2019-04-23T09:46:12.303Z,30.88
2019-04-23T09:47:26.359Z,31.07
2019-04-23T09:48:18.312Z,30.98
2019-04-23T09:49:35.069Z,31.57
2019-04-23T09:50:38.379Z,31.18
2019-04-23T09:52:56.059Z,31.46
2019-04-23T09:53:56.291Z,30.07
2019-04-23T09:55:04.450Z,30.18
2019-04-23T09:56:01.100Z,30.98
2019-04-23T09:57:10.798Z,31.19
2019-04-23T09:58:15.473Z,30.69
2019-04-23T09:59:31.857Z,30.69
2019-04-23T10:00:38.069Z,30.88
2019-04-23T10:01:49.878Z,30.28
2019-04-23T10:02:33.997Z,30.88
2019-04-23T10:03:43.565Z,30.58
2019-04-23T10:04:48.692Z,30.88
2019-04-23T10:05:49.137Z,30.68
2019-04-23T10:07:02.045Z,30.56
2019-04-23T10:08:04.156Z,30.36
2019-04-23T10:09:02.667Z,30.56
2019-04-23T10:10:05.786Z,30.08
2019-04-23T10:11:07.424Z,30.38
2019-04-23T10:12:09.483Z,29.88
2019-04-23T10:13:11.520Z,30.08
2019-04-23T10:14:12.455Z,29.88
2019-04-23T10:15:21.711Z,29.68
2019-04-23T10:16:21.446Z,30.38
2019-04-23T10:17:24.497Z,30.28
2019-04-23T10:18:24.967Z,30.76
2019-04-23T10:19:26.733Z,29.77
2019-04-23T10:20:28.571Z,29.27
2019-04-23T10:21:29.442Z,29.98
2019-04-23T10:22:33.692Z,30.38
2019-04-23T10:23:35.024Z,29.78
2019-04-23T10:24:36.910Z,30.59
2019-04-23T10:25:38.333Z,29.50
2019-04-23T10:26:39.958Z,30.29
2019-04-23T10:27:41.297Z,30.08
2019-04-23T10:28:42.202Z,30.18
2019-04-23T10:29:43.673Z,29.57
2019-04-23T10:30:44.992Z,30.05
2019-04-23T10:31:45.983Z,30.25
2019-04-23T10:32:47.545Z,30.25
2019-04-23T10:33:48.352Z,29.46
2019-04-23T10:34:58.095Z,30.05
2019-04-23T10:36:02.704Z,29.44
2019-04-23T10:37:02.019Z,29.74
2019-04-23T10:38:06.634Z,30.02
2019-04-23T10:39:15.526Z,29.43
2019-04-23T10:40:22.679Z,28.53
2019-04-23T10:41:22.539Z,28.74
2019-04-23T10:42:25.435Z,28.74
2019-04-23T10:43:28.818Z,29.64
2019-04-23T10:44:32.777Z,29.14
2019-04-23T10:45:57.106Z,29.44
2019-04-23T10:47:10.874Z,28.74
2019-04-23T10:48:29.481Z,28.55
2019-04-23T10:50:35.536Z,28.34
2019-04-23T10:52:37.518Z,28.25
2019-04-23T10:53:56.247Z,28.74
2019-04-23T10:54:52.416Z,28.25
2019-04-23T10:56:18.525Z,28.74
2019-04-23T10:58:18.450Z,28.81
2019-04-23T10:59:19.761Z,29.11
2019-04-23T11:00:30.540Z,28.60
2019-04-23T11:01:39.156Z,28.89
2019-04-23T11:04:02.550Z,29.07
2019-04-23T11:08:11.896Z,27.97
2019-04-23T11:09:37.280Z,27.37
2019-04-23T11:10:23.876Z,28.35
2019-04-23T11:11:48.300Z,28.45
2019-04-23T11:12:42.406Z,27.16
2019-04-23T11:13:48.729Z,27.25
2019-04-23T11:14:57.927Z,26.95
2019-04-23T11:16:27.601Z,27.04
2019-04-23T11:17:30.345Z,27.43
2019-04-23T11:18:08.979Z,26.74
2019-04-23T11:19:25.818Z,27.63
2019-04-23T11:23:46.659Z,26.23
2019-04-23T11:24:48.893Z,26.33
2019-04-23T11:25:49.148Z,26.13
2019-04-23T11:27:09.592Z,26.73
2019-04-23T11:28:16.174Z,26.03
2019-04-23T11:29:21.053Z,26.13
2019-04-23T11:30:32.526Z,26.43
2019-04-23T11:32:47.057Z,26.51
2019-04-23T11:33:46.358Z,26.40
2019-04-23T11:35:06.883Z,26.50
2019-04-23T11:38:38.843Z,26.97
2019-04-23T11:39:32.429Z,26.66
2019-04-23T11:40:21.215Z,25.97
2019-04-23T11:41:32.389Z,26.35
2019-04-23T11:42:38.117Z,25.96
2019-04-23T11:43:39.488Z,26.14
2019-04-23T11:44:49.533Z,25.74
2019-04-23T11:46:01.130Z,25.45
2019-04-23T11:49:25.293Z,25.73
2019-04-23T11:50:27.795Z,25.73
2019-04-23T11:50:56.017Z,26.03
2019-04-23T11:52:51.574Z,25.93
2019-04-23T11:53:46.478Z,25.52
2019-04-23T11:54:43.550Z,25.52
2019-04-23T11:57:22.281Z,24.74
2019-04-23T11:59:15.824Z,25.02
2019-04-23T12:01:42.128Z,24.43
2019-04-23T12:02:38.927Z,24.63
2019-04-23T12:03:47.099Z,25.31
2019-04-23T12:04:57.655Z,25.49
2019-04-23T12:07:00.587Z,24.16
2019-04-23T12:08:09.692Z,23.59
2019-04-23T12:09:15.989Z,20.83
2019-04-23T12:10:22.261Z,18.01
2019-04-23T12:12:33.448Z,15.97
2019-04-23T12:13:56.519Z,15.16
2019-04-23T12:14:50.832Z,14.26
2019-04-23T12:15:53.943Z,12.60
2019-04-23T12:17:09.705Z,10.49
2019-04-23T12:18:05.298Z,10.39
2019-04-23T12:19:33.104Z,10.21
2019-04-23T12:20:34.601Z,10.11
2019-04-23T12:21:28.212Z,10.47
2019-04-23T12:23:40.603Z,9.31
2019-04-23T12:25:06.483Z,9.67
2019-04-23T12:25:49.875Z,8.80
2019-04-23T12:27:46.988Z,8.50
2019-04-23T12:29:16.990Z,8.67
2019-04-23T12:30:16.481Z,8.66
2019-04-23T12:31:26.697Z,7.43
2019-04-23T12:32:48.745Z,7.91
2019-04-23T12:33:43.999Z,6.77
2019-04-23T12:34:52.823Z,7.24
2019-04-23T12:35:42.339Z,6.87
2019-04-23T12:36:56.825Z,7.24
2019-04-23T12:38:03.323Z,6.49
2019-04-23T12:39:11.239Z,5.93
2019-04-23T12:40:24.991Z,7.25
2019-04-23T12:41:20.748Z,6.50
2019-04-23T12:43:27.470Z,6.30
2019-04-23T12:44:46.146Z,6.11
2019-04-23T12:45:57.851Z,6.49
2019-04-23T12:47:05.584Z,6.20
2019-04-23T12:48:11.280Z,5.82
2019-04-23T12:49:30.371Z,6.02
2019-04-23T12:51:36.564Z,5.76
2019-04-23T12:52:37.930Z,5.95
2019-04-23T12:53:37.724Z,6.33
2019-04-23T12:55:00.352Z,6.15
2019-04-23T12:58:09.904Z,7.75
2019-04-23T12:59:09.056Z,7.27
2019-04-23T13:01:22.616Z,7.55
2019-04-23T13:02:39.863Z,6.31
2019-04-23T13:04:43.641Z,5.46
2019-04-23T13:05:53.986Z,5.47
2019-04-23T13:06:56.308Z,6.60
2019-04-23T13:08:05.799Z,6.51
2019-04-23T13:09:19.510Z,6.32
2019-04-23T13:10:15.846Z,6.33
2019-04-23T13:11:23.318Z,6.52
2019-04-23T13:12:37.734Z,6.33
2019-04-23T13:13:37.609Z,6.81
2019-04-23T13:14:51.062Z,6.24
2019-04-23T13:15:48.818Z,6.81
2019-04-23T13:17:02.651Z,6.34
2019-04-23T13:19:15.054Z,6.54
2019-04-23T13:20:19.411Z,7.53
2019-04-23T13:21:38.420Z,8.90
2019-04-23T13:22:37.339Z,9.77
2019-04-23T13:24:46.241Z,7.90
2019-04-23T13:25:47.308Z,8.19
2019-04-23T13:26:56.545Z,8.77
2019-04-23T13:29:19.940Z,8.69
2019-04-23T13:30:23.325Z,8.30
2019-04-23T13:31:20.368Z,7.43
2019-04-23T13:32:39.142Z,7.90
2019-04-23T13:34:58.567Z,7.40
2019-04-23T13:37:05.218Z,7.00
2019-04-23T13:38:09.335Z,6.34
2019-04-23T13:39:14.734Z,6.81
2019-04-23T13:40:24.371Z,6.16
2019-04-23T13:41:20.076Z,6.63
2019-04-23T13:42:43.026Z,6.73
2019-04-23T13:44:50.922Z,7.57
2019-04-23T13:47:00.547Z,7.20
2019-04-23T13:48:07.017Z,7.29
2019-04-23T13:49:12.175Z,7.10
2019-04-23T13:50:35.566Z,6.52
2019-04-23T13:53:42.607Z,7.08
2019-04-23T13:55:01.407Z,6.60
2019-04-23T13:55:49.923Z,6.41
2019-04-23T13:59:30.294Z,7.47
2019-04-23T14:00:22.516Z,6.90
2019-04-23T14:02:36.858Z,7.56
2019-04-23T14:03:40.712Z,7.37
2019-04-23T14:05:51.254Z,6.81
2019-04-23T14:07:10.714Z,7.68
2019-04-23T14:08:33.578Z,7.42
2019-04-23T14:09:19.985Z,8.58
2019-04-23T14:10:31.241Z,8.80
2019-04-23T14:12:41.561Z,10.75
2019-04-23T14:16:03.730Z,10.56
2019-04-23T14:17:08.782Z,10.74
2019-04-23T14:18:29.188Z,8.79
2019-04-23T14:19:30.177Z,9.25
2019-04-23T14:20:21.518Z,8.48
2019-04-23T14:21:37.685Z,8.47
2019-04-23T14:23:00.083Z,8.93
2019-04-23T14:24:04.608Z,7.98
2019-04-23T14:25:04.473Z,7.97
2019-04-23T14:26:10.826Z,7.97
2019-04-23T14:27:01.156Z,7.68
2019-04-23T14:29:13.201Z,7.68
2019-04-23T14:31:25.752Z,7.69
2019-04-23T14:33:46.965Z,7.60
2019-04-23T14:34:54.437Z,7.88
2019-04-23T14:35:56.376Z,7.70
2019-04-23T14:38:21.878Z,7.51
2019-04-23T14:39:24.088Z,7.70
2019-04-23T14:40:35.538Z,7.71
2019-04-23T14:41:53.956Z,8.37
2019-04-23T14:43:56.150Z,8.47
2019-04-23T14:45:13.567Z,9.14
2019-04-23T14:47:22.045Z,9.01
2019-04-23T14:48:27.995Z,9.83
2019-04-23T14:49:29.446Z,11.61
2019-04-23T14:52:53.918Z,13.43
2019-04-23T14:53:48.017Z,14.62
2019-04-23T14:55:36.216Z,16.22
2019-04-23T14:57:15.918Z,15.86
2019-04-23T14:59:13.405Z,17.17
2019-04-23T15:00:33.481Z,16.99
2019-04-23T15:01:49.785Z,17.98
2019-04-23T15:02:44.975Z,18.88
2019-04-23T15:03:50.579Z,18.99
2019-04-23T15:04:54.566Z,19.20
2019-04-23T15:06:15.793Z,20.39
2019-04-23T15:07:21.234Z,19.71
2019-04-23T15:08:25.240Z,19.90
2019-04-23T15:09:27.633Z,21.31
2019-04-23T15:10:42.281Z,20.73
2019-04-23T15:11:45.368Z,21.92
2019-04-23T15:12:46.246Z,22.33
2019-04-23T15:14:01.977Z,23.02
2019-04-23T15:15:21.252Z,22.93
2019-04-23T15:16:28.353Z,22.74
2019-04-23T15:17:34.073Z,23.15
2019-04-23T15:18:54.645Z,22.77
2019-04-23T15:21:26.116Z,22.88
2019-04-23T15:23:38.446Z,24.36
2019-04-23T15:24:22.982Z,24.77
2019-04-23T15:27:15.786Z,22.78
2019-04-23T15:27:29.590Z,26.18
2019-04-23T15:28:24.941Z,26.09
2019-04-23T15:29:38.719Z,26.20
2019-04-23T15:31:02.415Z,26.49
2019-04-23T15:35:29.535Z,26.52
2019-04-23T15:36:48.545Z,26.81
2019-04-23T15:39:58.868Z,27.23
2019-04-23T15:41:01.915Z,27.52
2019-04-23T15:42:16.787Z,28.02
2019-04-23T15:43:10.573Z,28.32
2019-04-23T15:44:13.656Z,27.23
2019-04-23T15:45:24.370Z,27.03
2019-04-23T15:47:45.316Z,27.62
2019-04-23T15:48:49.690Z,27.23
2019-04-23T15:49:57.413Z,26.82
2019-04-23T15:51:05.710Z,27.12
2019-04-23T15:52:06.248Z,28.12
2019-04-23T15:53:17.623Z,28.12
2019-04-23T15:54:22.535Z,28.32
2019-04-23T15:55:22.472Z,29.03
2019-04-23T15:56:35.758Z,28.94
2019-04-23T15:57:54.381Z,28.44
2019-04-23T15:58:56.073Z,28.63
2019-04-23T15:59:48.197Z,28.44
2019-04-23T16:01:06.091Z,27.85
2019-04-23T16:01:43.229Z,27.65
2019-04-23T16:02:44.258Z,27.95
2019-04-23T16:03:47.304Z,28.25
2019-04-23T16:04:51.096Z,28.23
2019-04-23T16:05:52.957Z,28.34
2019-04-23T16:06:54.012Z,28.44
2019-04-23T16:08:13.114Z,28.55
2019-04-23T16:09:28.486Z,28.44
2019-04-23T16:10:47.355Z,28.64
2019-04-23T16:12:56.729Z,28.55
2019-04-23T16:14:17.017Z,28.34
2019-04-23T16:15:06.513Z,28.26
2019-04-23T16:16:18.801Z,28.76
2019-04-23T16:18:37.170Z,30.16
2019-04-23T16:19:59.658Z,30.86
2019-04-23T16:20:58.608Z,30.96
2019-04-23T16:22:00.235Z,30.77
2019-04-23T16:22:51.408Z,30.77
2019-04-23T16:24:05.985Z,31.07
2019-04-23T16:25:12.796Z,30.68
2019-04-23T16:26:28.858Z,31.27
2019-04-23T16:27:17.003Z,31.27
2019-04-23T16:28:52.079Z,30.77
2019-04-23T16:30:40.800Z,30.79
2019-04-23T16:31:49.581Z,31.69
2019-04-23T16:33:03.712Z,31.89
2019-04-23T16:34:17.783Z,31.59
2019-04-23T16:35:17.951Z,31.69
2019-04-23T16:36:19.767Z,31.89
2019-04-23T16:37:22.100Z,31.89
2019-04-23T16:38:38.285Z,31.59
2019-04-23T16:39:31.427Z,31.69
2019-04-23T16:43:05.459Z,31.40
2019-04-23T16:44:09.425Z,31.10
2019-04-23T16:45:15.179Z,31.90
2019-04-23T16:46:21.479Z,32.60
2019-04-23T16:47:26.107Z,32.22
2019-04-23T16:48:40.663Z,32.92
2019-04-23T16:49:42.084Z,33.22
2019-04-23T16:51:04.756Z,32.71
2019-04-23T16:51:47.818Z,33.33
2019-04-23T16:53:09.191Z,32.53
2019-04-23T16:54:11.385Z,32.43
2019-04-23T16:55:19.316Z,32.83
2019-04-23T16:57:43.820Z,33.63
2019-04-23T17:00:07.450Z,33.33
2019-04-23T17:01:01.173Z,34.05
2019-04-23T17:01:50.433Z,33.84
2019-04-23T17:03:07.918Z,34.14
2019-04-23T17:04:11.702Z,33.95
2019-04-23T17:05:24.953Z,33.75
2019-04-23T17:06:15.876Z,33.45
2019-04-23T17:07:20.965Z,33.84
2019-04-23T17:09:42.680Z,34.14
2019-04-23T17:10:53.337Z,34.34
2019-04-23T17:14:33.899Z,33.96
2019-04-23T17:16:15.266Z,34.06
2019-04-23T17:16:59.825Z,33.96
2019-04-23T17:18:24.494Z,33.47
2019-04-23T17:20:00.459Z,33.56
2019-04-23T17:21:38.986Z,33.66
2019-04-23T17:22:46.966Z,33.66
2019-04-23T17:27:52.503Z,34.16
2019-04-23T17:29:00.396Z,33.88
2019-04-23T17:30:32.478Z,33.36
2019-04-23T17:32:46.863Z,34.08
2019-04-23T17:35:04.694Z,33.78
2019-04-23T17:36:18.264Z,33.68
2019-04-23T17:38:42.695Z,34.80
2019-04-23T17:39:47.518Z,34.80
2019-04-23T17:41:05.890Z,34.50
2019-04-23T17:43:06.365Z,34.99
2019-04-23T17:44:38.277Z,34.89
2019-04-23T17:45:32.219Z,34.81
2019-04-23T17:46:37.542Z,34.81
2019-04-23T17:47:52.191Z,34.51
2019-04-23T17:48:55.339Z,34.71
2019-04-23T17:50:23.452Z,35.01
2019-04-23T17:51:28.053Z,35.21
2019-04-23T17:52:41.812Z,35.11
2019-04-23T17:53:59.646Z,35.33
2019-04-23T17:54:56.670Z,35.33
2019-04-23T17:57:22.905Z,35.13
2019-04-23T17:58:23.365Z,35.93
2019-04-23T17:59:38.360Z,35.93